createdAt,value
2023-05-22T00:01:49.415Z,31.93
2023-05-22T00:04:21.178Z,32.33
2023-05-22T00:06:49.939Z,32.60
2023-05-22T00:09:17.761Z,32.96
2023-05-22T00:11:45.693Z,32.15
2023-05-22T00:14:13.889Z,31.64
2023-05-22T00:16:41.887Z,31.85
2023-05-22T00:19:16.543Z,31.05
2023-05-22T00:21:45.144Z,31.99
2023-05-22T00:24:12.906Z,31.23
2023-05-22T00:26:40.619Z,31.00
2023-05-22T00:29:09.296Z,31.00
2023-05-22T00:31:37.003Z,31.60
2023-05-22T00:34:04.670Z,31.83
2023-05-22T00:36:32.365Z,31.68
2023-05-22T00:39:00.961Z,32.14
2023-05-22T00:41:28.939Z,32.64
2023-05-22T00:43:56.570Z,32.56
2023-05-22T00:46:24.485Z,32.56
2023-05-22T00:48:53.068Z,33.44
2023-05-22T00:51:22.702Z,34.10
2023-05-22T00:53:51.709Z,33.58
2023-05-22T00:56:19.723Z,34.31
2023-05-22T00:58:48.336Z,34.37
2023-05-22T01:01:16.699Z,33.96
2023-05-22T01:03:46.038Z,33.47
2023-05-22T01:06:15.897Z,33.62
2023-05-22T01:08:45.033Z,34.03
2023-05-22T01:11:40.471Z,34.96
2023-05-22T01:14:26.891Z,35.17
2023-05-22T01:17:56.180Z,34.48
2023-05-22T01:20:31.684Z,34.14
2023-05-22T01:23:24.198Z,34.01
2023-05-22T01:26:22.426Z,34.52
2023-05-22T01:29:29.229Z,34.27
2023-05-22T01:31:59.128Z,35.92
2023-05-22T01:34:28.351Z,35.43
2023-05-22T01:36:57.284Z,35.98
2023-05-22T01:39:28.493Z,36.29
2023-05-22T01:41:56.559Z,36.58
2023-05-22T01:44:25.124Z,37.67
2023-05-22T01:46:52.840Z,36.99
2023-05-22T01:49:20.664Z,36.57
2023-05-22T01:51:57.487Z,36.20
2023-05-22T01:54:31.623Z,35.66
2023-05-22T01:57:37.516Z,35.19
2023-05-22T02:00:12.035Z,35.07
2023-05-22T02:02:53.584Z,34.95
2023-05-22T02:05:23.478Z,34.35
2023-05-22T02:07:52.597Z,34.50
2023-05-22T02:10:21.742Z,34.60
2023-05-22T02:12:49.495Z,34.89
2023-05-22T02:15:17.946Z,35.40
2023-05-22T02:17:46.284Z,35.19
2023-05-22T02:20:15.660Z,35.56
2023-05-22T02:22:48.402Z,34.79
2023-05-22T02:25:17.686Z,36.13
2023-05-22T02:27:47.940Z,36.49
2023-05-22T02:30:15.885Z,36.75
2023-05-22T02:32:45.752Z,36.68
2023-05-22T02:35:13.464Z,37.14
2023-05-22T02:37:41.124Z,37.60
2023-05-22T02:40:12.370Z,37.09
2023-05-22T02:42:40.232Z,36.37
2023-05-22T02:45:08.961Z,36.27
2023-05-22T02:47:37.265Z,35.89
2023-05-22T02:50:05.993Z,35.78
2023-05-22T02:52:36.943Z,36.04
2023-05-22T02:55:05.499Z,35.80
2023-05-22T02:57:33.600Z,36.42
2023-05-22T03:00:01.594Z,35.65
2023-05-22T03:02:32.319Z,34.93
2023-05-22T03:05:00.265Z,34.55
2023-05-22T03:07:29.640Z,34.40
2023-05-22T03:09:57.937Z,34.59
2023-05-22T03:12:25.576Z,34.44
2023-05-22T03:14:53.280Z,34.65
2023-05-22T03:17:21.048Z,34.38
2023-05-22T03:19:48.972Z,34.64
2023-05-22T03:22:18.547Z,34.91
2023-05-22T03:24:46.493Z,34.88
2023-05-22T03:27:18.289Z,35.29
2023-05-22T03:29:47.926Z,35.12
2023-05-22T03:32:16.876Z,35.32
2023-05-22T03:34:44.586Z,35.68
2023-05-22T03:37:12.589Z,36.15
2023-05-22T03:39:40.420Z,36.34
2023-05-22T03:42:18.922Z,35.15
2023-05-22T03:44:47.121Z,34.72
2023-05-22T03:47:14.815Z,35.06
2023-05-22T03:49:42.541Z,36.00
2023-05-22T03:52:10.780Z,35.34
2023-05-22T03:54:38.494Z,34.94
2023-05-22T03:57:06.974Z,35.81
2023-05-22T03:59:34.759Z,35.26
2023-05-22T04:02:02.362Z,35.49
2023-05-22T04:04:30.673Z,35.14
2023-05-22T04:06:59.303Z,35.51
2023-05-22T04:09:27.717Z,34.55
2023-05-22T04:11:58.824Z,35.00
2023-05-22T04:14:26.702Z,34.90
2023-05-22T04:16:54.646Z,35.16
2023-05-22T04:19:22.540Z,34.81
2023-05-22T04:21:50.428Z,34.77
2023-05-22T04:24:18.526Z,35.44
2023-05-22T04:26:46.397Z,35.43
2023-05-22T04:29:14.628Z,35.23
2023-05-22T04:31:43.263Z,34.26
2023-05-22T04:34:15.544Z,33.72
2023-05-22T04:36:45.312Z,33.89
2023-05-22T04:39:14.748Z,34.08
2023-05-22T04:41:42.898Z,33.59
2023-05-22T04:44:10.568Z,33.56
2023-05-22T04:46:38.487Z,33.62
2023-05-22T04:49:06.553Z,34.61
2023-05-22T04:51:34.945Z,34.41
2023-05-22T04:54:02.792Z,33.13
2023-05-22T04:56:36.268Z,32.88
2023-05-22T04:59:09.121Z,33.05
2023-05-22T05:01:38.699Z,32.28
2023-05-22T05:04:06.595Z,31.50
2023-05-22T05:06:34.927Z,31.56
2023-05-22T05:09:05.058Z,31.63
2023-05-22T05:11:33.018Z,32.06
2023-05-22T05:14:01.040Z,31.88
2023-05-22T05:16:29.853Z,31.75
2023-05-22T05:18:57.768Z,31.79
2023-05-22T05:21:27.848Z,31.92
2023-05-22T05:23:57.288Z,31.50
2023-05-22T05:26:25.123Z,31.32
2023-05-22T05:28:54.029Z,31.00
2023-05-22T05:31:22.642Z,30.49
2023-05-22T05:34:22.921Z,30.34
2023-05-22T05:36:59.431Z,29.91
2023-05-22T05:39:27.201Z,29.58
2023-05-22T05:41:55.818Z,29.99
2023-05-22T05:44:23.510Z,30.31
2023-05-22T05:46:52.697Z,29.29
2023-05-22T05:49:22.364Z,28.90
2023-05-22T05:51:50.549Z,29.58
2023-05-22T05:54:19.130Z,29.36
2023-05-22T05:56:47.088Z,29.10
2023-05-22T05:59:14.868Z,30.37
2023-05-22T06:02:01.244Z,31.12
2023-05-22T06:04:32.826Z,30.53
2023-05-22T06:07:01.977Z,29.58
2023-05-22T06:09:50.109Z,30.31
2023-05-22T06:12:22.955Z,30.30
2023-05-22T06:14:50.871Z,30.04
2023-05-22T06:17:18.456Z,29.85
2023-05-22T06:19:46.811Z,29.57
2023-05-22T06:22:16.637Z,30.49
2023-05-22T06:24:46.781Z,30.93
2023-05-22T06:27:18.573Z,30.86
2023-05-22T06:29:46.602Z,30.81
2023-05-22T06:32:14.370Z,30.64
2023-05-22T06:34:47.253Z,30.38
2023-05-22T06:37:16.931Z,31.63
2023-05-22T06:39:45.748Z,31.31
2023-05-22T06:42:19.499Z,31.01
2023-05-22T06:45:22.283Z,30.26
2023-05-22T06:48:09.976Z,30.02
2023-05-22T06:50:44.144Z,28.90
2023-05-22T06:53:11.868Z,29.92
2023-05-22T06:55:39.499Z,29.90
2023-05-22T06:58:14.085Z,30.88
2023-05-22T07:00:42.082Z,31.41
2023-05-22T07:03:16.209Z,31.79
2023-05-22T07:06:22.234Z,31.80
2023-05-22T07:08:50.920Z,31.19
2023-05-22T07:11:18.752Z,29.62
2023-05-22T07:13:46.468Z,29.65
2023-05-22T07:16:14.874Z,30.09
2023-05-22T07:18:42.877Z,29.27
2023-05-22T07:21:10.817Z,30.43
2023-05-22T07:23:38.661Z,29.84
2023-05-22T07:26:07.825Z,31.86
2023-05-22T07:28:39.480Z,31.80
2023-05-22T07:31:13.840Z,31.20
2023-05-22T07:33:41.758Z,31.14
2023-05-22T07:36:10.689Z,30.37
2023-05-22T07:38:41.815Z,29.65
2023-05-22T07:41:10.093Z,30.92
2023-05-22T07:43:37.999Z,30.85
2023-05-22T07:46:06.759Z,29.79
2023-05-22T07:48:40.759Z,30.63
2023-05-22T07:51:08.435Z,31.10
2023-05-22T07:53:36.049Z,30.47
2023-05-22T07:56:05.526Z,29.23
2023-05-22T07:58:34.668Z,27.81
2023-05-22T08:01:05.786Z,30.32
2023-05-22T08:03:35.162Z,30.09
2023-05-22T08:06:04.226Z,30.03
2023-05-22T08:08:32.754Z,30.84
2023-05-22T08:11:04.173Z,30.94
2023-05-22T08:13:32.570Z,29.77
2023-05-22T08:16:01.365Z,29.89
2023-05-22T08:18:29.936Z,32.16
2023-05-22T08:20:59.648Z,31.09
2023-05-22T08:23:27.398Z,31.21
2023-05-22T08:25:55.143Z,31.90
2023-05-22T08:28:23.041Z,30.70
2023-05-22T08:30:51.190Z,29.58
2023-05-22T08:33:19.931Z,30.31
2023-05-22T08:35:47.759Z,29.06
2023-05-22T08:38:16.288Z,28.89
2023-05-22T08:40:47.944Z,29.05
2023-05-22T08:43:15.811Z,27.88
2023-05-22T08:45:44.250Z,27.96
2023-05-22T08:48:13.873Z,28.05
2023-05-22T08:50:43.490Z,28.02
2023-05-22T08:53:16.457Z,28.16
2023-05-22T08:55:44.238Z,28.38
2023-05-22T08:58:12.661Z,28.44
2023-05-22T09:00:41.182Z,29.33
2023-05-22T09:03:13.814Z,29.17
2023-05-22T09:05:41.933Z,29.15
2023-05-22T09:08:19.720Z,28.78
2023-05-22T09:10:48.493Z,28.17
2023-05-22T09:13:27.451Z,26.95
2023-05-22T09:16:09.513Z,27.67
2023-05-22T09:18:42.343Z,28.38
2023-05-22T09:21:28.687Z,27.84
2023-05-22T09:24:01.555Z,26.93
2023-05-22T09:26:30.318Z,26.96
2023-05-22T09:29:00.000Z,26.48
2023-05-22T09:31:31.757Z,26.05
2023-05-22T09:33:59.796Z,25.71
2023-05-22T09:36:33.807Z,23.59
2023-05-22T09:39:03.901Z,23.74
2023-05-22T09:41:38.420Z,24.57
2023-05-22T09:44:16.367Z,24.42
2023-05-22T09:46:47.206Z,23.98
2023-05-22T09:49:17.004Z,25.38
2023-05-22T09:51:49.272Z,24.88
2023-05-22T09:54:20.170Z,24.76
2023-05-22T09:56:54.801Z,23.79
2023-05-22T09:59:30.275Z,25.30
2023-05-22T10:01:58.931Z,27.54
2023-05-22T10:04:31.474Z,27.28
2023-05-22T10:07:04.058Z,25.57
2023-05-22T10:09:34.664Z,25.71
2023-05-22T10:12:07.336Z,26.44
2023-05-22T10:14:36.567Z,25.73
2023-05-22T10:17:06.617Z,24.46
2023-05-22T10:19:39.429Z,25.69
2023-05-22T10:22:11.718Z,23.87
2023-05-22T10:24:41.112Z,23.65
2023-05-22T10:27:08.804Z,24.63
2023-05-22T10:30:18.102Z,24.53
2023-05-22T10:33:22.312Z,23.59
2023-05-22T10:36:02.544Z,25.65
2023-05-22T10:39:04.950Z,27.18
2023-05-22T10:41:33.744Z,25.49
2023-05-22T10:44:03.692Z,25.50
2023-05-22T10:46:34.641Z,24.51
2023-05-22T10:49:02.546Z,23.61
2023-05-22T10:51:34.282Z,24.71
2023-05-22T10:54:02.512Z,23.74
2023-05-22T10:56:35.460Z,23.31
2023-05-22T10:59:08.008Z,23.63
2023-05-22T11:01:38.367Z,23.20
2023-05-22T11:04:25.764Z,24.92
2023-05-22T11:07:06.830Z,25.56
2023-05-22T11:09:48.511Z,25.64
2023-05-22T11:12:29.807Z,26.26
2023-05-22T11:15:06.829Z,26.25
2023-05-22T11:17:51.416Z,25.30
2023-05-22T11:20:22.283Z,26.00
2023-05-22T11:23:07.216Z,26.09
2023-05-22T11:25:37.364Z,25.13
2023-05-22T11:28:07.041Z,24.24
2023-05-22T11:30:35.131Z,24.23
2023-05-22T11:33:03.245Z,23.36
2023-05-22T11:35:31.425Z,23.22
2023-05-22T11:37:59.842Z,22.75
2023-05-22T11:40:29.701Z,22.31
2023-05-22T11:42:57.627Z,22.34
2023-05-22T11:45:25.845Z,21.94
2023-05-22T11:47:53.604Z,23.09
2023-05-22T11:50:40.103Z,22.50
2023-05-22T11:53:09.353Z,23.17
2023-05-22T11:55:37.076Z,22.80
2023-05-22T11:58:04.905Z,23.34
2023-05-22T12:00:33.141Z,23.01
2023-05-22T12:03:00.955Z,23.03
2023-05-22T12:05:31.514Z,24.52
2023-05-22T12:07:59.318Z,24.70
2023-05-22T12:10:27.019Z,24.29
2023-05-22T12:12:55.071Z,23.49
2023-05-22T12:15:24.629Z,23.72
2023-05-22T12:17:55.881Z,22.88
2023-05-22T12:20:28.649Z,22.28
2023-05-22T12:22:56.764Z,21.84
2023-05-22T12:25:24.956Z,22.82
2023-05-22T12:27:52.857Z,23.87
2023-05-22T12:30:20.651Z,23.94
2023-05-22T12:32:50.186Z,24.53
2023-05-22T12:35:18.923Z,23.50
2023-05-22T12:37:52.470Z,23.28
2023-05-22T12:40:20.717Z,23.56
2023-05-22T12:42:48.910Z,23.42
2023-05-22T12:45:17.963Z,22.42
2023-05-22T12:47:46.211Z,21.81
2023-05-22T12:50:14.076Z,21.90
2023-05-22T12:52:41.763Z,23.14
2023-05-22T12:55:10.831Z,21.97
2023-05-22T12:57:38.585Z,21.65
2023-05-22T13:00:07.291Z,20.81
2023-05-22T13:02:35.473Z,22.08
2023-05-22T13:05:03.558Z,21.37
2023-05-22T13:07:32.678Z,21.00
2023-05-22T13:10:00.478Z,21.50
2023-05-22T13:12:28.225Z,21.80
2023-05-22T13:14:56.036Z,22.02
2023-05-22T13:17:23.781Z,20.52
2023-05-22T13:19:51.970Z,19.66
2023-05-22T13:22:20.010Z,19.19
2023-05-22T13:24:47.915Z,19.46
2023-05-22T13:27:18.273Z,19.27
2023-05-22T13:29:46.003Z,19.65
2023-05-22T13:32:14.132Z,18.75
2023-05-22T13:34:42.225Z,19.71
2023-05-22T13:37:10.278Z,20.06
2023-05-22T13:39:37.935Z,18.62
2023-05-22T13:42:06.496Z,18.65
2023-05-22T13:44:34.262Z,17.96
2023-05-22T13:47:01.955Z,18.95
2023-05-22T13:49:29.709Z,18.80
2023-05-22T13:51:57.544Z,18.21
2023-05-22T13:54:26.378Z,18.14
2023-05-22T13:56:54.275Z,17.48
2023-05-22T13:59:21.975Z,17.81
2023-05-22T14:01:49.676Z,18.13
2023-05-22T14:04:17.414Z,17.90
2023-05-22T14:06:45.260Z,17.51
2023-05-22T14:09:13.226Z,17.31
2023-05-22T14:11:41.061Z,17.31
2023-05-22T14:14:08.822Z,16.89
2023-05-22T14:16:36.557Z,16.60
2023-05-22T14:19:04.497Z,16.50
2023-05-22T14:21:32.217Z,16.52
2023-05-22T14:24:02.403Z,16.34
2023-05-22T14:26:30.169Z,16.82
2023-05-22T14:28:57.972Z,17.46
2023-05-22T14:31:31.138Z,16.58
2023-05-22T14:33:58.904Z,17.13
2023-05-22T14:36:26.508Z,17.14
2023-05-22T14:38:56.605Z,16.71
2023-05-22T14:41:24.433Z,16.73
2023-05-22T14:43:52.266Z,16.25
2023-05-22T14:46:19.963Z,15.43
2023-05-22T14:48:47.737Z,15.28
2023-05-22T14:51:15.596Z,14.88
2023-05-22T14:53:43.364Z,15.22
2023-05-22T14:56:11.289Z,14.22
2023-05-22T14:58:38.995Z,14.84
2023-05-22T15:01:06.743Z,14.34
2023-05-22T15:03:34.544Z,14.52
2023-05-22T15:06:02.386Z,14.36
2023-05-22T15:08:29.981Z,13.64
2023-05-22T15:10:57.728Z,13.99
2023-05-22T15:13:25.421Z,15.84
2023-05-22T15:15:53.263Z,17.11
2023-05-22T15:18:21.025Z,17.05
2023-05-22T15:20:49.099Z,17.33
2023-05-22T15:23:16.798Z,16.24
2023-05-22T15:25:44.899Z,15.33
2023-05-22T15:28:12.543Z,15.28
2023-05-22T15:30:41.865Z,15.29
2023-05-22T15:33:09.647Z,15.22
2023-05-22T15:35:37.511Z,14.57
2023-05-22T15:38:06.042Z,14.44
2023-05-22T15:40:33.742Z,14.30
2023-05-22T15:43:03.944Z,14.38
2023-05-22T15:45:31.789Z,14.36
2023-05-22T15:47:59.852Z,13.91
2023-05-22T15:50:27.966Z,14.27
2023-05-22T15:52:55.699Z,13.34
2023-05-22T15:55:23.466Z,13.25
2023-05-22T15:57:51.396Z,13.45
2023-05-22T16:00:21.438Z,13.90
2023-05-22T16:02:49.519Z,12.96
2023-05-22T16:05:17.350Z,13.18
2023-05-22T16:07:45.291Z,13.23
2023-05-22T16:10:13.220Z,13.67
2023-05-22T16:12:41.524Z,13.63
2023-05-22T16:15:09.906Z,15.09
2023-05-22T16:17:38.257Z,15.16
2023-05-22T16:20:08.445Z,14.53
2023-05-22T16:22:47.137Z,15.10
2023-05-22T16:25:17.415Z,14.62
2023-05-22T16:27:45.501Z,15.18
2023-05-22T16:30:16.710Z,14.26
2023-05-22T16:32:48.547Z,13.36
2023-05-22T16:35:16.577Z,12.66
2023-05-22T16:37:44.381Z,11.72
2023-05-22T16:40:12.287Z,11.80
2023-05-22T16:42:40.116Z,11.18
2023-05-22T16:45:08.277Z,11.16
2023-05-22T16:47:36.180Z,11.03
2023-05-22T16:50:04.395Z,11.45
2023-05-22T16:52:33.047Z,11.99
2023-05-22T16:55:01.253Z,12.53
2023-05-22T16:57:28.949Z,12.37
2023-05-22T16:59:57.886Z,14.04
2023-05-22T17:02:25.955Z,14.76
2023-05-22T17:04:54.574Z,14.28
2023-05-22T17:07:22.229Z,14.33
2023-05-22T17:09:49.854Z,14.56
2023-05-22T17:12:17.545Z,15.00
2023-05-22T17:14:45.386Z,15.51
2023-05-22T17:17:13.099Z,15.34
2023-05-22T17:19:40.909Z,15.55
2023-05-22T17:22:08.922Z,16.21
2023-05-22T17:24:36.651Z,16.05
2023-05-22T17:27:04.427Z,15.88
2023-05-22T17:29:32.394Z,15.55
2023-05-22T17:32:00.011Z,15.77
2023-05-22T17:34:27.868Z,16.26
2023-05-22T17:36:55.668Z,16.35
2023-05-22T17:39:23.569Z,16.37
2023-05-22T17:41:51.549Z,17.58
2023-05-22T17:44:19.485Z,17.15
2023-05-22T17:46:47.264Z,17.46
2023-05-22T17:49:15.584Z,17.38
2023-05-22T17:51:43.236Z,17.44
2023-05-22T17:54:10.950Z,17.16
2023-05-22T17:56:38.583Z,16.64
2023-05-22T17:59:07.691Z,16.83
2023-05-22T18:01:35.640Z,17.13
2023-05-22T18:04:04.825Z,17.17
2023-05-22T18:06:32.883Z,17.97
2023-05-22T18:09:05.336Z,17.71
2023-05-22T18:11:33.766Z,18.03
2023-05-22T18:14:01.501Z,18.24
2023-05-22T18:16:29.612Z,18.19
2023-05-22T18:18:57.470Z,18.38
2023-05-22T18:21:26.094Z,19.08
2023-05-22T18:23:53.882Z,19.55
2023-05-22T18:26:21.695Z,20.01
2023-05-22T18:28:49.516Z,19.56
2023-05-22T18:31:17.184Z,19.48
2023-05-22T18:33:45.140Z,19.58
2023-05-22T18:36:13.308Z,19.44
2023-05-22T18:38:41.137Z,19.59
2023-05-22T18:41:08.791Z,19.80
2023-05-22T18:43:36.540Z,19.78
2023-05-22T18:46:04.372Z,20.34
2023-05-22T18:48:33.075Z,20.29
2023-05-22T18:51:01.881Z,20.12
2023-05-22T18:53:29.991Z,21.25
2023-05-22T18:55:57.665Z,20.93
2023-05-22T18:58:25.574Z,20.73
2023-05-22T19:00:55.704Z,21.62
2023-05-22T19:03:23.587Z,21.22
2023-05-22T19:05:51.321Z,21.53
2023-05-22T19:08:19.002Z,21.75
2023-05-22T19:10:46.627Z,21.56
2023-05-22T19:13:14.359Z,21.48
2023-05-22T19:15:42.045Z,21.72
2023-05-22T19:18:09.867Z,22.36
2023-05-22T19:20:37.826Z,22.30
2023-05-22T19:23:06.668Z,21.75
2023-05-22T19:25:34.359Z,22.08
2023-05-22T19:28:02.060Z,21.94
2023-05-22T19:30:29.857Z,21.91
2023-05-22T19:32:57.657Z,22.36
2023-05-22T19:35:25.577Z,22.10
2023-05-22T19:37:54.050Z,21.82
2023-05-22T19:40:21.698Z,21.80
2023-05-22T19:42:49.390Z,21.68
2023-05-22T19:45:17.546Z,21.69
2023-05-22T19:47:45.439Z,21.86
2023-05-22T19:50:13.169Z,22.14
2023-05-22T19:52:41.571Z,22.35
2023-05-22T19:55:10.250Z,22.80
2023-05-22T19:57:38.156Z,22.97
2023-05-22T20:00:07.571Z,22.71
2023-05-22T20:02:35.434Z,22.65
2023-05-22T20:05:04.352Z,22.90
2023-05-22T20:07:32.151Z,22.70
2023-05-22T20:09:59.751Z,23.15
2023-05-22T20:12:27.416Z,23.35
2023-05-22T20:14:55.138Z,23.47
2023-05-22T20:17:22.925Z,23.35
2023-05-22T20:19:50.615Z,23.51
2023-05-22T20:22:18.353Z,23.38
2023-05-22T20:24:47.172Z,23.29
2023-05-22T20:27:14.829Z,23.21
2023-05-22T20:29:42.475Z,23.43
2023-05-22T20:32:11.189Z,23.46
2023-05-22T20:34:40.038Z,23.81
2023-05-22T20:37:10.055Z,23.69
2023-05-22T20:39:37.852Z,24.31
2023-05-22T20:42:06.313Z,24.26
2023-05-22T20:44:34.422Z,24.33
2023-05-22T20:47:03.190Z,24.16
2023-05-22T20:49:31.011Z,23.87
2023-05-22T20:51:59.979Z,24.28
2023-05-22T20:54:34.010Z,24.08
2023-05-22T20:57:02.181Z,23.72
2023-05-22T20:59:30.205Z,23.81
2023-05-22T21:01:58.183Z,23.97
2023-05-22T21:04:26.443Z,24.27
2023-05-22T21:06:54.203Z,24.21
2023-05-22T21:09:21.886Z,24.00
2023-05-22T21:11:49.607Z,24.24
2023-05-22T21:14:17.241Z,24.38
2023-05-22T21:16:45.055Z,24.54
2023-05-22T21:19:12.810Z,24.05
2023-05-22T21:21:41.667Z,24.15
2023-05-22T21:24:09.931Z,24.04
2023-05-22T21:26:38.080Z,24.04
2023-05-22T21:29:06.070Z,24.12
2023-05-22T21:31:35.495Z,24.54
2023-05-22T21:34:03.607Z,24.66
2023-05-22T21:36:31.780Z,24.81
2023-05-22T21:39:00.340Z,25.41
2023-05-22T21:41:28.187Z,25.40
2023-05-22T21:43:57.368Z,25.20
2023-05-22T21:46:25.044Z,25.40
2023-05-22T21:48:53.834Z,24.83
2023-05-22T21:51:21.712Z,25.21
2023-05-22T21:53:49.349Z,25.82
2023-05-22T21:56:17.255Z,26.39
2023-05-22T21:58:44.924Z,26.12
2023-05-22T22:01:12.604Z,26.19
2023-05-22T22:03:40.657Z,26.45
2023-05-22T22:06:08.479Z,26.86
2023-05-22T22:08:36.205Z,27.26
2023-05-22T22:11:03.922Z,27.77
2023-05-22T22:13:31.633Z,28.34
2023-05-22T22:15:59.473Z,27.89
2023-05-22T22:18:27.266Z,27.52
2023-05-22T22:20:55.863Z,27.60
2023-05-22T22:23:23.690Z,27.52
2023-05-22T22:25:51.391Z,28.04
2023-05-22T22:28:19.042Z,28.10
2023-05-22T22:30:47.810Z,27.85
2023-05-22T22:33:15.610Z,28.07
2023-05-22T22:35:43.337Z,28.53
2023-05-22T22:38:11.100Z,28.02
2023-05-22T22:40:38.953Z,27.78
2023-05-22T22:43:06.920Z,27.74
2023-05-22T22:45:34.686Z,27.57
2023-05-22T22:48:03.807Z,27.49
2023-05-22T22:50:32.158Z,27.45
2023-05-22T22:52:59.943Z,27.45
2023-05-22T22:55:27.776Z,27.57
2023-05-22T22:57:56.263Z,28.73
2023-05-22T23:00:24.595Z,28.74
2023-05-22T23:02:52.476Z,29.28
2023-05-22T23:05:20.894Z,29.44
2023-05-22T23:07:48.865Z,29.76
2023-05-22T23:10:16.640Z,30.72
2023-05-22T23:12:44.385Z,28.72
2023-05-22T23:15:13.525Z,29.57
2023-05-22T23:17:42.041Z,30.55
2023-05-22T23:20:11.051Z,30.12
2023-05-22T23:22:38.705Z,30.50
2023-05-22T23:25:07.173Z,30.79
2023-05-22T23:27:34.891Z,31.82
2023-05-22T23:30:04.554Z,32.32
2023-05-22T23:32:32.903Z,34.27
2023-05-22T23:35:00.606Z,31.81
2023-05-22T23:37:28.255Z,30.76
2023-05-22T23:39:55.942Z,31.03
2023-05-22T23:42:23.675Z,29.68
2023-05-22T23:44:51.337Z,29.19
2023-05-22T23:47:19.160Z,29.25
2023-05-22T23:49:47.142Z,29.03
2023-05-22T23:52:14.742Z,29.87
2023-05-22T23:54:42.458Z,31.49
2023-05-22T23:57:10.596Z,33.02
2023-05-22T23:59:39.067Z,30.72
